createdAt,value
2018-09-03T00:06:55.621Z,18.83
2018-09-03T00:09:42.880Z,18.37
2018-09-03T00:12:19.458Z,17.93
2018-09-03T00:15:05.933Z,18.57
2018-09-03T00:20:43.700Z,14.40
2018-09-03T00:23:22.691Z,13.73
2018-09-03T00:26:04.960Z,18.27
2018-09-03T00:28:40.802Z,18.40
2018-09-03T00:31:22.922Z,16.30
2018-09-03T00:34:09.687Z,16.70
2018-09-03T00:37:51.654Z,17.10
2018-09-03T00:40:32.653Z,18.37
2018-09-03T00:43:16.122Z,13.20
2018-09-03T00:45:58.110Z,15.60
2018-09-03T00:48:32.998Z,14.53
2018-09-03T00:51:11.368Z,19.23
2018-09-03T00:53:54.035Z,13.27
2018-09-03T00:56:37.352Z,14.60
2018-09-03T00:59:14.814Z,17.43
2018-09-03T01:01:50.599Z,13.83
2018-09-03T01:04:24.915Z,18.07
2018-09-03T01:07:00.315Z,16.70
2018-09-03T01:09:37.699Z,16.83
2018-09-03T01:12:15.954Z,14.07
2018-09-03T01:14:51.076Z,15.43
2018-09-03T01:17:25.110Z,19.60
2018-09-03T01:20:14.836Z,13.83
2018-09-03T01:22:49.595Z,22.10
2018-09-03T01:25:22.599Z,19.97
2018-09-03T01:27:59.029Z,19.07
2018-09-03T01:30:32.178Z,22.40
2018-09-03T01:33:09.501Z,20.10
2018-09-03T01:36:03.484Z,20.10
2018-09-03T01:38:40.115Z,20.80
2018-09-03T01:41:19.717Z,18.93
2018-09-03T01:44:06.177Z,18.60
2018-09-03T01:46:50.536Z,17.73
2018-09-03T01:49:26.418Z,16.87
2018-09-03T01:52:08.282Z,16.10
2018-09-03T01:54:46.301Z,14.40
2018-09-03T01:57:34.760Z,16.57
2018-09-03T02:00:17.487Z,17.83
2018-09-03T02:02:52.373Z,17.70
2018-09-03T02:05:26.225Z,12.67
2018-09-03T02:08:01.900Z,12.33
2018-09-03T02:10:41.905Z,18.10
2018-09-03T02:13:20.786Z,15.30
2018-09-03T02:16:08.006Z,15.50
2018-09-03T02:21:44.809Z,18.23
2018-09-03T02:24:22.124Z,15.67
2018-09-03T02:26:55.913Z,16.63
2018-09-03T02:29:29.201Z,14.87
2018-09-03T02:32:11.558Z,14.53
2018-09-03T02:34:55.383Z,17.00
2018-09-03T02:37:30.043Z,25.17
2018-09-03T02:40:13.409Z,14.73
2018-09-03T02:42:55.657Z,14.73
2018-09-03T02:45:33.047Z,14.10
2018-09-03T02:48:10.585Z,14.30
2018-09-03T02:50:42.352Z,15.90
2018-09-03T02:53:20.849Z,15.20
2018-09-03T02:56:08.592Z,14.97
2018-09-03T02:58:44.850Z,15.47
2018-09-03T03:01:19.179Z,15.30
2018-09-03T03:06:43.421Z,16.17
2018-09-03T03:09:16.055Z,16.47
2018-09-03T03:11:49.879Z,15.37
2018-09-03T03:14:42.193Z,14.90
2018-09-03T03:17:33.452Z,17.33
2018-09-03T03:20:19.548Z,15.93
2018-09-03T03:22:54.273Z,18.47
2018-09-03T03:28:55.645Z,16.80
2018-09-03T03:31:24.492Z,16.97
2018-09-03T03:33:53.377Z,16.27
2018-09-03T03:36:22.216Z,17.23
2018-09-03T03:38:51.034Z,17.80
2018-09-03T03:41:19.849Z,16.53
2018-09-03T03:43:48.693Z,18.33
2018-09-03T03:46:17.506Z,17.23
2018-09-03T03:48:46.416Z,17.37
2018-09-03T03:51:15.415Z,16.77
2018-09-03T03:53:45.684Z,19.07
2018-09-03T03:56:14.490Z,17.83
2018-09-03T03:58:43.418Z,16.37
2018-09-03T04:01:12.253Z,20.70
2018-09-03T04:03:41.062Z,20.03
2018-09-03T04:06:10.052Z,19.40
2018-09-03T04:08:40.118Z,18.43
2018-09-03T04:11:08.968Z,20.03
2018-09-03T04:13:37.784Z,18.07
2018-09-03T04:16:06.649Z,19.80
2018-09-03T04:18:35.458Z,18.27
2018-09-03T04:21:04.288Z,18.23
2018-09-03T04:23:33.177Z,17.27
2018-09-03T04:26:02.165Z,16.90
2018-09-03T04:28:31.027Z,17.20
2018-09-03T04:31:01.243Z,16.37
2018-09-03T04:33:30.126Z,17.87
2018-09-03T04:35:59.024Z,17.80
2018-09-03T04:38:27.908Z,16.60
2018-09-03T04:40:56.818Z,16.10
2018-09-03T04:43:25.719Z,15.77
2018-09-03T04:45:54.823Z,15.93
2018-09-03T04:48:23.689Z,16.17
2018-09-03T04:50:52.571Z,21.33
2018-09-03T04:53:21.477Z,21.75
2018-09-03T04:55:50.370Z,22.13
2018-09-03T04:58:19.358Z,17.23
2018-09-03T05:00:48.227Z,17.40
2018-09-03T05:03:17.036Z,17.60
2018-09-03T05:05:45.891Z,16.17
2018-09-03T05:08:15.912Z,15.20
2018-09-03T05:10:46.076Z,16.23
2018-09-03T05:13:14.882Z,17.02
2018-09-03T05:15:43.714Z,13.77
2018-09-03T05:18:12.607Z,15.10
2018-09-03T05:20:41.542Z,15.00
2018-09-03T05:23:10.496Z,13.93
2018-09-03T05:25:39.366Z,15.87
2018-09-03T05:28:08.164Z,25.03
2018-09-03T05:30:36.978Z,28.10
2018-09-03T05:33:06.087Z,35.23
2018-09-03T05:35:34.924Z,26.63
2018-09-03T05:38:03.725Z,26.93
2018-09-03T05:40:32.620Z,22.10
2018-09-03T05:43:01.583Z,27.70
2018-09-03T05:45:30.498Z,25.20
2018-09-03T05:47:59.305Z,20.90
2018-09-03T05:50:28.309Z,19.10
2018-09-03T05:52:56.982Z,23.90
2018-09-03T05:55:25.903Z,25.07
2018-09-03T05:57:54.741Z,19.80
2018-09-03T06:00:23.593Z,19.70
2018-09-03T06:02:52.452Z,21.17
2018-09-03T06:05:21.351Z,19.23
2018-09-03T06:07:51.678Z,19.13
2018-09-03T06:10:20.546Z,15.23
2018-09-03T06:12:49.394Z,20.87
2018-09-03T06:15:19.798Z,20.13
2018-09-03T06:17:48.770Z,16.77
2018-09-03T06:20:18.800Z,16.73
2018-09-03T06:22:47.629Z,14.53
2018-09-03T06:25:16.413Z,14.13
2018-09-03T06:27:45.274Z,15.97
2018-09-03T06:30:14.103Z,15.83
2018-09-03T06:32:42.943Z,16.53
2018-09-03T06:35:13.165Z,15.13
2018-09-03T06:37:41.967Z,16.07
2018-09-03T06:40:10.814Z,17.23
2018-09-03T06:42:39.749Z,15.33
2018-09-03T06:45:08.831Z,16.07
2018-09-03T06:47:37.831Z,14.57
2018-09-03T06:50:09.285Z,14.03
2018-09-03T06:52:39.583Z,15.23
2018-09-03T06:55:08.478Z,15.30
2018-09-03T06:57:37.298Z,12.70
2018-09-03T07:00:06.988Z,14.17
2018-09-03T07:02:35.844Z,14.47
2018-09-03T07:05:04.803Z,13.47
2018-09-03T07:07:33.764Z,15.33
2018-09-03T07:10:02.588Z,13.43
2018-09-03T07:12:31.552Z,14.97
2018-09-03T07:15:01.819Z,14.40
2018-09-03T07:17:30.664Z,12.63
2018-09-03T07:19:59.676Z,13.50
2018-09-03T07:22:30.961Z,13.00
2018-09-03T07:24:59.828Z,12.40
2018-09-03T07:27:31.401Z,13.43
2018-09-03T07:30:01.595Z,12.50
2018-09-03T07:32:30.589Z,13.20
2018-09-03T07:35:01.083Z,12.30
2018-09-03T07:37:29.935Z,12.63
2018-09-03T07:39:58.728Z,12.30
2018-09-03T07:42:27.613Z,12.83
2018-09-03T07:44:56.417Z,13.03
2018-09-03T07:47:25.223Z,13.53
2018-09-03T07:49:54.080Z,12.63
2018-09-03T07:52:22.942Z,12.43
2018-09-03T07:54:51.938Z,12.20
2018-09-03T07:57:20.797Z,12.80
2018-09-03T07:59:49.633Z,11.70
2018-09-03T08:02:18.455Z,11.73
2018-09-03T08:04:48.666Z,12.60
2018-09-03T08:07:17.502Z,12.83
2018-09-03T08:09:46.325Z,11.80
2018-09-03T08:12:16.660Z,12.83
2018-09-03T08:14:45.482Z,12.50
2018-09-03T08:17:14.347Z,13.63
2018-09-03T08:19:43.226Z,13.37
2018-09-03T08:22:12.143Z,13.63
2018-09-03T08:24:40.956Z,12.13
2018-09-03T08:27:09.868Z,12.80
2018-09-03T08:29:39.938Z,13.03
2018-09-03T08:32:08.774Z,11.00
2018-09-03T08:34:38.993Z,12.83
2018-09-03T08:37:07.867Z,12.30
2018-09-03T08:39:36.689Z,12.23
2018-09-03T08:42:06.981Z,12.23
2018-09-03T08:44:35.813Z,11.80
2018-09-03T08:47:04.680Z,12.47
2018-09-03T08:49:33.604Z,12.50
2018-09-03T08:52:02.517Z,15.40
2018-09-03T08:54:31.396Z,11.63
2018-09-03T08:57:00.265Z,11.53
2018-09-03T08:59:29.186Z,12.70
2018-09-03T09:01:58.061Z,27.33
2018-09-03T09:04:26.885Z,23.40
2018-09-03T09:06:55.748Z,17.20
2018-09-03T09:09:24.622Z,25.47
2018-09-03T09:11:53.450Z,12.97
2018-09-03T09:14:22.300Z,11.93
2018-09-03T09:16:51.231Z,10.20
2018-09-03T09:19:20.147Z,10.47
2018-09-03T09:21:48.975Z,9.87
2018-09-03T09:24:17.855Z,10.40
2018-09-03T09:26:46.746Z,11.90
2018-09-03T09:29:15.580Z,20.27
2018-09-03T09:31:44.449Z,11.33
2018-09-03T09:34:13.334Z,13.80
2018-09-03T09:36:42.241Z,13.37
2018-09-03T09:39:11.313Z,12.73
2018-09-03T09:41:40.172Z,10.37
2018-09-03T09:44:10.075Z,10.60
2018-09-03T09:46:38.947Z,10.00
2018-09-03T09:49:07.784Z,13.87
2018-09-03T09:51:36.642Z,11.57
2018-09-03T09:54:05.563Z,10.23
2018-09-03T09:56:34.397Z,10.47
2018-09-03T09:59:03.313Z,10.97
2018-09-03T10:01:37.016Z,10.67
2018-09-03T10:04:06.065Z,13.33
2018-09-03T10:06:34.889Z,11.10
2018-09-03T10:09:05.717Z,11.27
2018-09-03T10:11:34.571Z,10.57
2018-09-03T10:14:03.417Z,10.67
2018-09-03T10:16:32.434Z,10.17
2018-09-03T10:19:01.309Z,10.97
2018-09-03T10:21:30.177Z,9.80
2018-09-03T10:24:00.360Z,10.63
2018-09-03T10:26:29.270Z,9.07
2018-09-03T10:28:58.161Z,9.73
2018-09-03T10:31:27.065Z,10.77
2018-09-03T10:33:55.886Z,9.07
2018-09-03T10:36:24.774Z,9.47
2018-09-03T10:38:53.633Z,9.77
2018-09-03T10:41:23.878Z,10.00
2018-09-03T10:43:52.697Z,9.67
2018-09-03T10:46:21.605Z,9.37
2018-09-03T10:48:51.781Z,10.50
2018-09-03T10:51:20.633Z,10.37
2018-09-03T10:53:49.510Z,10.53
2018-09-03T10:56:18.387Z,10.30
2018-09-03T10:58:47.440Z,10.43
2018-09-03T11:01:16.294Z,9.93
2018-09-03T11:03:45.192Z,10.90
2018-09-03T11:06:15.464Z,10.17
2018-09-03T11:08:45.584Z,10.50
2018-09-03T11:11:14.425Z,9.57
2018-09-03T11:13:44.584Z,8.87
2018-09-03T11:16:13.473Z,9.70
2018-09-03T11:18:42.336Z,10.27
2018-09-03T11:21:11.256Z,8.93
2018-09-03T11:23:40.121Z,9.10
2018-09-03T11:26:08.977Z,9.93
2018-09-03T11:28:37.948Z,9.67
2018-09-03T11:31:06.945Z,9.90
2018-09-03T11:33:35.780Z,9.10
2018-09-03T11:36:04.670Z,9.57
2018-09-03T11:38:33.533Z,9.20
2018-09-03T11:41:02.374Z,8.70
2018-09-03T11:43:31.262Z,10.10
2018-09-03T11:46:00.093Z,10.17
2018-09-03T11:48:28.980Z,9.40
2018-09-03T11:50:59.151Z,9.80
2018-09-03T11:53:28.067Z,9.53
2018-09-03T11:55:56.933Z,9.17
2018-09-03T11:58:27.123Z,8.20
2018-09-03T12:00:58.912Z,8.50
2018-09-03T12:03:27.780Z,8.87
2018-09-03T12:05:56.725Z,9.43
2018-09-03T12:08:25.644Z,9.50
2018-09-03T12:10:54.478Z,8.73
2018-09-03T12:13:23.322Z,8.47
2018-09-03T12:16:25.719Z,9.77
2018-09-03T12:18:58.233Z,9.17
2018-09-03T12:21:28.451Z,8.77
2018-09-03T12:23:58.518Z,9.03
2018-09-03T12:26:27.385Z,9.63
2018-09-03T12:28:56.501Z,9.13
2018-09-03T12:31:25.445Z,8.77
2018-09-03T12:33:54.235Z,9.07
2018-09-03T12:36:23.174Z,8.80
2018-09-03T12:38:52.091Z,8.93
2018-09-03T12:41:21.032Z,9.03
2018-09-03T12:43:49.958Z,9.00
2018-09-03T12:46:18.923Z,9.10
2018-09-03T12:48:47.743Z,8.87
2018-09-03T12:51:16.595Z,7.40
2018-09-03T12:53:45.506Z,9.60
2018-09-03T12:56:14.397Z,8.10
2018-09-03T12:58:43.264Z,7.40
2018-09-03T13:01:12.173Z,8.17
2018-09-03T13:03:40.988Z,7.77
2018-09-03T13:06:09.810Z,7.53
2018-09-03T13:08:38.688Z,7.73
2018-09-03T13:11:07.578Z,7.50
2018-09-03T13:13:36.494Z,7.33
2018-09-03T13:16:05.597Z,6.93
2018-09-03T13:18:35.736Z,7.63
2018-09-03T13:21:04.567Z,7.37
2018-09-03T13:23:33.436Z,6.83
2018-09-03T13:26:02.330Z,6.93
2018-09-03T13:28:31.163Z,6.80
2018-09-03T13:31:06.641Z,6.50
2018-09-03T13:33:35.484Z,6.90
2018-09-03T13:36:04.374Z,6.97
2018-09-03T13:38:33.370Z,6.83
2018-09-03T13:41:02.467Z,6.57
2018-09-03T13:43:31.369Z,6.67
2018-09-03T13:46:00.296Z,8.03
2018-09-03T13:48:29.168Z,7.00
2018-09-03T13:50:58.072Z,6.57
2018-09-03T13:53:26.921Z,6.90
2018-09-03T13:55:55.794Z,6.20
2018-09-03T13:58:24.645Z,6.93
2018-09-03T14:00:53.480Z,7.40
2018-09-03T14:03:24.168Z,6.50
2018-09-03T14:05:53.133Z,7.07
2018-09-03T14:08:22.012Z,6.70
2018-09-03T14:10:50.869Z,6.60
2018-09-03T14:13:19.673Z,7.37
2018-09-03T14:15:49.988Z,7.63
2018-09-03T14:18:18.825Z,7.70
2018-09-03T14:20:47.786Z,6.83
2018-09-03T14:23:18.000Z,6.87
2018-09-03T14:25:46.836Z,7.20
2018-09-03T14:28:15.684Z,7.17
2018-09-03T14:30:44.557Z,7.40
2018-09-03T14:33:13.384Z,6.90
2018-09-03T14:35:42.302Z,6.80
2018-09-03T14:38:11.190Z,7.00
2018-09-03T14:40:40.025Z,6.80
2018-09-03T14:43:10.299Z,7.03
2018-09-03T14:45:39.034Z,6.53
2018-09-03T14:48:07.923Z,6.33
2018-09-03T14:50:36.785Z,6.17
2018-09-03T14:53:05.597Z,7.17
2018-09-03T14:55:34.466Z,6.80
2018-09-03T14:58:03.319Z,7.47
2018-09-03T15:00:32.181Z,7.37
2018-09-03T15:03:00.994Z,7.53
2018-09-03T15:05:29.890Z,8.80
2018-09-03T15:07:58.721Z,8.33
2018-09-03T15:10:27.534Z,7.70
2018-09-03T15:12:56.504Z,9.80
2018-09-03T15:15:25.352Z,14.23
2018-09-03T15:17:54.205Z,9.00
2018-09-03T15:20:23.154Z,7.97
2018-09-03T15:22:51.962Z,8.77
2018-09-03T15:25:20.801Z,8.57
2018-09-03T15:27:50.937Z,8.87
2018-09-03T15:30:19.929Z,9.37
2018-09-03T15:32:48.769Z,9.33
2018-09-03T15:35:17.613Z,8.50
2018-09-03T15:37:46.491Z,9.50
2018-09-03T15:40:15.320Z,8.53
2018-09-03T15:42:44.186Z,8.60
2018-09-03T15:45:13.142Z,8.40
2018-09-03T15:47:42.065Z,7.90
2018-09-03T15:50:10.900Z,8.60
2018-09-03T15:52:41.024Z,8.17
2018-09-03T15:55:09.969Z,8.40
2018-09-03T15:57:38.859Z,9.10
2018-09-03T16:00:09.165Z,8.63
2018-09-03T16:02:39.563Z,9.43
2018-09-03T16:05:08.430Z,9.87
2018-09-03T16:07:37.281Z,9.77
2018-09-03T16:10:06.560Z,11.33
2018-09-03T16:12:35.428Z,10.07
2018-09-03T16:15:04.313Z,9.73
2018-09-03T16:17:34.535Z,10.13
2018-09-03T16:20:03.513Z,10.10
2018-09-03T16:22:32.441Z,9.83
2018-09-03T16:25:01.327Z,12.07
2018-09-03T16:27:30.499Z,10.20
2018-09-03T16:29:59.256Z,10.57
2018-09-03T16:32:28.176Z,11.23
2018-09-03T16:34:58.322Z,10.80
2018-09-03T16:37:27.152Z,11.33
2018-09-03T16:39:55.992Z,10.73
2018-09-03T16:42:26.308Z,11.97
2018-09-03T16:44:55.165Z,11.23
2018-09-03T16:47:25.236Z,11.03
2018-09-03T16:49:54.057Z,11.80
2018-09-03T16:52:22.965Z,10.40
2018-09-03T16:54:52.985Z,10.77
2018-09-03T16:57:21.850Z,10.97
2018-09-03T16:59:50.685Z,11.03
2018-09-03T17:02:20.949Z,11.00
2018-09-03T17:04:49.827Z,9.70
2018-09-03T17:07:18.807Z,10.63
2018-09-03T17:09:47.792Z,8.80
2018-09-03T17:12:16.642Z,9.83
2018-09-03T17:14:45.637Z,10.97
2018-09-03T17:17:14.505Z,9.90
2018-09-03T17:19:43.408Z,9.47
2018-09-03T17:22:12.385Z,10.17
2018-09-03T17:24:41.436Z,9.73
2018-09-03T17:27:10.315Z,9.43
2018-09-03T17:29:39.279Z,9.50
2018-09-03T17:32:08.205Z,8.77
2018-09-03T17:34:37.106Z,10.53
2018-09-03T17:37:06.312Z,10.70
2018-09-03T17:39:35.225Z,9.90
2018-09-03T17:42:04.275Z,9.63
2018-09-03T17:44:33.161Z,9.70
2018-09-03T17:47:02.076Z,9.23
2018-09-03T17:49:31.010Z,8.83
2018-09-03T17:52:00.190Z,9.80
2018-09-03T17:54:30.340Z,9.87
2018-09-03T17:56:59.167Z,9.80
2018-09-03T17:59:28.010Z,9.60
2018-09-03T18:01:56.897Z,9.57
2018-09-03T18:04:25.758Z,9.83
2018-09-03T18:06:54.618Z,8.97
2018-09-03T18:09:23.514Z,9.47
2018-09-03T18:11:52.400Z,10.00
2018-09-03T18:14:21.230Z,9.47
2018-09-03T18:16:51.408Z,9.50
2018-09-03T18:19:20.302Z,9.73
2018-09-03T18:21:49.275Z,9.80
2018-09-03T18:24:18.157Z,9.13
2018-09-03T18:26:46.969Z,9.03
2018-09-03T18:29:15.829Z,10.13
2018-09-03T18:31:45.989Z,9.57
2018-09-03T18:34:14.814Z,9.73
2018-09-03T18:36:43.881Z,9.57
2018-09-03T18:39:13.959Z,10.57
2018-09-03T18:41:42.856Z,10.23
2018-09-03T18:44:11.653Z,10.53
2018-09-03T18:46:41.829Z,9.27
2018-09-03T18:49:10.756Z,9.70
2018-09-03T18:51:39.629Z,9.13
2018-09-03T18:54:09.696Z,9.67
2018-09-03T18:56:38.522Z,11.17
2018-09-03T18:59:07.445Z,12.20
2018-09-03T19:01:36.309Z,10.93
2018-09-03T19:04:05.145Z,11.57
2018-09-03T19:06:34.007Z,11.20
2018-09-03T19:09:04.286Z,11.37
2018-09-03T19:11:33.141Z,11.40
2018-09-03T19:14:01.979Z,11.43
2018-09-03T19:16:29.709Z,11.47
2018-09-03T19:18:59.898Z,12.50
2018-09-03T19:21:28.767Z,10.80
2018-09-03T19:23:57.629Z,10.90
2018-09-03T19:26:26.457Z,9.77
2018-09-03T19:28:55.466Z,10.63
2018-09-03T19:31:24.296Z,10.13
2018-09-03T19:33:54.436Z,10.50
2018-09-03T19:36:23.250Z,10.33
2018-09-03T19:38:52.132Z,10.90
2018-09-03T19:41:21.038Z,10.13
2018-09-03T19:43:49.881Z,10.03
2018-09-03T19:46:18.753Z,9.20
2018-09-03T19:48:47.660Z,10.93
2018-09-03T19:51:16.505Z,9.97
2018-09-03T19:53:45.321Z,11.50
2018-09-03T19:56:14.241Z,11.50
2018-09-03T19:58:44.385Z,11.23
2018-09-03T20:01:13.244Z,9.73
2018-09-03T20:03:42.061Z,9.20
2018-09-03T20:06:10.955Z,9.90
2018-09-03T20:08:40.183Z,9.40
2018-09-03T20:11:09.091Z,8.53
2018-09-03T20:13:39.612Z,8.83
2018-09-03T20:16:08.548Z,10.10
2018-09-03T20:18:37.389Z,8.40
2018-09-03T20:21:06.425Z,9.80
2018-09-03T20:23:35.466Z,10.27
2018-09-03T20:26:04.282Z,11.07
2018-09-03T20:28:33.168Z,11.03
2018-09-03T20:31:02.120Z,10.47
2018-09-03T20:33:31.005Z,10.73
2018-09-03T20:35:59.842Z,9.50
2018-09-03T20:38:28.681Z,10.10
2018-09-03T20:40:58.809Z,9.63
2018-09-03T20:43:27.661Z,10.07
2018-09-03T20:45:56.500Z,9.33
2018-09-03T20:48:25.464Z,9.73
2018-09-03T20:50:54.313Z,10.17
2018-09-03T20:53:23.173Z,10.00
2018-09-03T20:55:52.128Z,9.57
2018-09-03T20:58:20.946Z,9.13
2018-09-03T21:00:49.893Z,10.13
2018-09-03T21:03:18.705Z,9.60
2018-09-03T21:05:47.593Z,9.43
2018-09-03T21:08:16.498Z,8.73
2018-09-03T21:10:45.325Z,9.20
2018-09-03T21:13:14.204Z,9.73
2018-09-03T21:15:43.049Z,9.10
2018-09-03T21:18:11.891Z,9.87
2018-09-03T21:20:40.858Z,10.00
2018-09-03T21:23:09.729Z,8.80
2018-09-03T21:25:38.505Z,8.50
2018-09-03T21:28:07.427Z,8.63
2018-09-03T21:30:36.264Z,9.33
2018-09-03T21:33:05.153Z,8.60
2018-09-03T21:35:34.025Z,10.10
2018-09-03T21:38:02.973Z,9.20
2018-09-03T21:40:31.825Z,9.27
2018-09-03T21:43:00.671Z,9.07
2018-09-03T21:45:29.485Z,8.70
2018-09-03T21:47:58.298Z,8.17
2018-09-03T21:50:27.161Z,9.10
2018-09-03T21:52:55.967Z,9.40
2018-09-03T21:55:24.781Z,8.63
2018-09-03T21:57:53.625Z,9.23
2018-09-03T22:00:22.498Z,7.80
2018-09-03T22:02:51.316Z,7.20
2018-09-03T22:05:20.156Z,8.20
2018-09-03T22:07:48.953Z,6.73
2018-09-03T22:10:17.753Z,8.07
2018-09-03T22:12:46.613Z,8.33
2018-09-03T22:15:15.429Z,8.27
2018-09-03T22:17:45.671Z,8.37
2018-09-03T22:20:14.534Z,8.60
2018-09-03T22:22:43.381Z,10.17
2018-09-03T22:25:12.351Z,10.17
2018-09-03T22:27:41.226Z,8.50
2018-09-03T22:30:10.138Z,9.37
2018-09-03T22:32:38.969Z,9.23
2018-09-03T22:35:07.894Z,9.10
2018-09-03T22:37:36.712Z,9.00
2018-09-03T22:40:05.727Z,9.47
2018-09-03T22:42:34.606Z,9.80
2018-09-03T22:45:03.515Z,9.67
2018-09-03T22:47:32.336Z,9.17
2018-09-03T22:50:01.171Z,9.53
2018-09-03T22:52:30.053Z,9.47
2018-09-03T22:54:58.853Z,9.07
2018-09-03T22:57:27.784Z,8.60
2018-09-03T22:59:56.594Z,8.90
2018-09-03T23:02:36.020Z,8.90
2018-09-03T23:05:05.302Z,9.57
2018-09-03T23:07:34.178Z,8.27
2018-09-03T23:10:03.003Z,9.37
2018-09-03T23:12:31.961Z,9.27
2018-09-03T23:15:00.860Z,8.90
2018-09-03T23:17:29.758Z,8.63
2018-09-03T23:19:58.610Z,7.60
2018-09-03T23:22:27.477Z,7.63
2018-09-03T23:24:56.609Z,8.93
2018-09-03T23:27:25.923Z,7.40
2018-09-03T23:29:54.823Z,7.17
2018-09-03T23:32:23.763Z,7.47
2018-09-03T23:34:52.708Z,6.87
2018-09-03T23:37:21.585Z,6.90
2018-09-03T23:39:50.434Z,6.70
2018-09-03T23:42:19.370Z,8.20
2018-09-03T23:44:48.273Z,7.53
2018-09-03T23:47:17.199Z,7.00
2018-09-03T23:49:46.191Z,8.27
2018-09-03T23:52:15.163Z,9.10
2018-09-03T23:54:44.056Z,10.23
2018-09-03T23:57:13.095Z,8.43
2018-09-03T23:59:42.049Z,12.53
